createdAt,value
2019-02-17T00:00:12.174Z,54.43
2019-02-17T00:02:41.394Z,54.93
2019-02-17T00:05:10.579Z,47.53
2019-02-17T00:07:39.883Z,53.13
2019-02-17T00:10:09.118Z,57.33
2019-02-17T00:12:38.265Z,66.33
2019-02-17T00:15:07.784Z,68.33
2019-02-17T00:17:36.946Z,74.57
2019-02-17T00:20:08.039Z,81.30
2019-02-17T00:22:37.400Z,71.00
2019-02-17T00:25:06.840Z,64.47
2019-02-17T00:27:35.986Z,53.23
2019-02-17T00:30:05.296Z,51.87
2019-02-17T00:32:34.486Z,49.13
2019-02-17T00:35:03.621Z,50.80
2019-02-17T00:37:32.839Z,50.00
2019-02-17T00:40:01.997Z,48.97
2019-02-17T00:42:31.264Z,43.13
2019-02-17T00:45:00.418Z,43.30
2019-02-17T00:47:29.576Z,40.53
2019-02-17T00:49:58.882Z,41.73
2019-02-17T00:52:28.154Z,38.90
2019-02-17T00:54:57.383Z,44.00
2019-02-17T00:57:26.590Z,37.43
2019-02-17T00:59:55.841Z,37.30
2019-02-17T01:02:25.011Z,42.23
2019-02-17T01:04:54.167Z,40.97
2019-02-17T01:07:23.346Z,33.20
2019-02-17T01:09:52.491Z,39.43
2019-02-17T01:12:21.647Z,35.80
2019-02-17T01:14:50.806Z,35.00
2019-02-17T01:17:20.079Z,33.33
2019-02-17T01:19:49.366Z,36.87
2019-02-17T01:22:18.508Z,35.70
2019-02-17T01:24:47.630Z,34.17
2019-02-17T01:27:16.875Z,33.63
2019-02-17T01:29:46.030Z,39.67
2019-02-17T01:32:15.174Z,34.37
2019-02-17T01:34:44.458Z,34.70
2019-02-17T01:37:13.595Z,37.03
2019-02-17T01:39:52.018Z,40.63
2019-02-17T01:42:21.458Z,39.43
2019-02-17T01:44:50.642Z,33.07
2019-02-17T01:47:19.820Z,34.97
2019-02-17T01:49:48.973Z,35.57
2019-02-17T01:52:18.107Z,33.63
2019-02-17T01:54:47.574Z,34.57
2019-02-17T01:57:16.702Z,38.27
2019-02-17T01:59:45.846Z,33.20
2019-02-17T02:02:14.987Z,34.00
2019-02-17T02:04:44.125Z,33.40
2019-02-17T02:07:13.246Z,33.83
2019-02-17T02:09:42.424Z,33.60
2019-02-17T02:12:11.557Z,32.33
2019-02-17T02:14:40.702Z,30.80
2019-02-17T02:17:09.846Z,33.63
2019-02-17T02:19:39.032Z,33.50
2019-02-17T02:22:08.213Z,35.53
2019-02-17T02:24:37.370Z,34.73
2019-02-17T02:27:06.573Z,35.37
2019-02-17T02:29:41.142Z,36.90
2019-02-17T02:32:06.645Z,34.97
2019-02-17T02:34:35.781Z,39.27
2019-02-17T02:37:04.917Z,38.47
2019-02-17T02:39:34.078Z,36.03
2019-02-17T02:42:03.322Z,34.70
2019-02-17T02:44:32.669Z,38.03
2019-02-17T02:47:01.789Z,32.00
2019-02-17T02:49:30.977Z,36.33
2019-02-17T02:52:00.118Z,37.60
2019-02-17T02:54:29.283Z,34.03
2019-02-17T02:56:58.520Z,37.97
2019-02-17T02:59:27.668Z,35.70
2019-02-17T03:01:56.869Z,36.43
2019-02-17T03:04:26.039Z,37.07
2019-02-17T03:06:57.266Z,35.13
2019-02-17T03:09:26.441Z,35.77
2019-02-17T03:11:55.584Z,31.07
2019-02-17T03:14:24.738Z,35.97
2019-02-17T03:16:53.918Z,32.73
2019-02-17T03:19:23.052Z,34.60
2019-02-17T03:21:52.235Z,32.60
2019-02-17T03:24:21.435Z,34.70
2019-02-17T03:26:50.588Z,34.37
2019-02-17T03:29:19.865Z,35.50
2019-02-17T03:31:49.219Z,34.50
2019-02-17T03:34:18.421Z,35.90
2019-02-17T03:36:47.558Z,35.10
2019-02-17T03:39:16.780Z,37.80
2019-02-17T03:41:45.962Z,35.73
2019-02-17T03:44:15.118Z,30.30
2019-02-17T03:46:44.271Z,39.17
2019-02-17T03:49:13.522Z,36.47
2019-02-17T03:51:42.658Z,37.53
2019-02-17T03:54:11.859Z,37.70
2019-02-17T03:56:41.041Z,35.93
2019-02-17T03:59:10.177Z,37.10
2019-02-17T04:01:39.382Z,38.67
2019-02-17T04:04:08.579Z,38.03
2019-02-17T04:06:37.719Z,39.03
2019-02-17T04:09:08.470Z,36.40
2019-02-17T04:11:37.620Z,39.60
2019-02-17T04:14:06.772Z,42.67
2019-02-17T04:16:35.933Z,38.93
2019-02-17T04:19:05.111Z,36.53
2019-02-17T04:21:34.323Z,38.40
2019-02-17T04:24:03.578Z,40.03
2019-02-17T04:26:32.747Z,38.13
2019-02-17T04:29:01.989Z,38.67
2019-02-17T04:31:31.203Z,37.03
2019-02-17T04:34:00.355Z,37.43
2019-02-17T04:36:29.503Z,31.43
2019-02-17T04:38:58.733Z,34.47
2019-02-17T04:41:27.941Z,32.40
2019-02-17T04:43:57.075Z,33.67
2019-02-17T04:46:26.378Z,33.97
2019-02-17T04:48:55.517Z,34.60
2019-02-17T04:51:24.711Z,35.67
2019-02-17T04:53:53.937Z,33.67
2019-02-17T04:56:23.082Z,33.60
2019-02-17T04:58:52.323Z,33.47
2019-02-17T05:01:21.569Z,31.63
2019-02-17T05:03:50.759Z,35.07
2019-02-17T05:06:19.968Z,31.10
2019-02-17T05:08:49.262Z,40.37
2019-02-17T05:11:18.386Z,37.53
2019-02-17T05:13:47.556Z,34.87
2019-02-17T05:16:16.770Z,39.73
2019-02-17T05:18:45.991Z,35.07
2019-02-17T05:21:15.145Z,34.80
2019-02-17T05:23:44.354Z,39.30
2019-02-17T05:26:13.513Z,34.83
2019-02-17T05:28:42.695Z,41.40
2019-02-17T05:31:11.836Z,40.17
2019-02-17T05:33:40.969Z,39.47
2019-02-17T05:36:10.129Z,46.07
2019-02-17T05:38:39.357Z,41.57
2019-02-17T05:41:08.527Z,39.77
2019-02-17T05:43:37.650Z,39.60
2019-02-17T05:46:06.795Z,42.07
2019-02-17T05:48:36.082Z,49.53
2019-02-17T05:51:05.259Z,44.53
2019-02-17T05:53:34.462Z,49.20
2019-02-17T05:56:03.594Z,52.43
2019-02-17T05:58:32.772Z,48.03
2019-02-17T06:01:04.135Z,48.23
2019-02-17T06:03:32.762Z,43.73
2019-02-17T06:06:01.903Z,47.97
2019-02-17T06:08:31.138Z,46.40
2019-02-17T06:11:00.319Z,52.17
2019-02-17T06:13:29.457Z,51.83
2019-02-17T06:15:58.610Z,59.63
2019-02-17T06:18:27.846Z,57.47
2019-02-17T06:20:57.966Z,53.40
2019-02-17T06:23:27.109Z,60.10
2019-02-17T06:25:56.257Z,55.07
2019-02-17T06:28:25.438Z,57.27
2019-02-17T06:30:54.589Z,61.23
2019-02-17T06:33:23.744Z,59.83
2019-02-17T06:35:52.918Z,57.47
2019-02-17T06:38:22.138Z,67.70
2019-02-17T06:40:51.270Z,61.30
2019-02-17T06:43:20.473Z,52.90
2019-02-17T06:45:49.650Z,55.47
2019-02-17T06:48:18.782Z,47.77
2019-02-17T06:50:47.993Z,48.93
2019-02-17T06:53:17.119Z,53.47
2019-02-17T06:55:51.161Z,53.47
2019-02-17T06:58:20.358Z,56.53
2019-02-17T07:00:51.937Z,54.93
2019-02-17T07:03:21.122Z,55.47
2019-02-17T07:06:01.997Z,57.60
2019-02-17T07:08:31.330Z,58.67
2019-02-17T07:11:00.526Z,61.23
2019-02-17T07:13:29.686Z,60.97
2019-02-17T07:15:58.928Z,59.70
2019-02-17T07:18:28.230Z,64.43
2019-02-17T07:20:57.373Z,70.80
2019-02-17T07:23:26.538Z,68.47
2019-02-17T07:25:55.678Z,72.03
2019-02-17T07:28:24.816Z,68.27
2019-02-17T07:30:54.122Z,64.27
2019-02-17T07:33:23.331Z,78.03
2019-02-17T07:35:52.502Z,85.67
2019-02-17T07:38:21.665Z,84.80
2019-02-17T07:40:50.902Z,92.47
2019-02-17T07:43:20.026Z,86.17
2019-02-17T07:45:49.260Z,80.83
2019-02-17T07:48:18.411Z,89.80
2019-02-17T07:50:47.552Z,82.27
2019-02-17T07:53:16.689Z,75.07
2019-02-17T07:55:45.810Z,66.33
2019-02-17T07:58:14.970Z,63.10
2019-02-17T08:00:44.103Z,59.10
2019-02-17T08:03:13.272Z,51.50
2019-02-17T08:05:42.426Z,59.40
2019-02-17T08:08:11.570Z,50.20
2019-02-17T08:10:40.749Z,49.33
2019-02-17T08:13:09.913Z,56.60
2019-02-17T08:15:39.038Z,58.20
2019-02-17T08:18:08.195Z,59.83
2019-02-17T08:20:37.334Z,59.80
2019-02-17T08:23:06.537Z,67.47
2019-02-17T08:25:35.681Z,60.30
2019-02-17T08:28:04.809Z,59.47
2019-02-17T08:30:33.966Z,48.67
2019-02-17T08:33:03.202Z,52.47
2019-02-17T08:35:32.509Z,57.00
2019-02-17T08:38:03.531Z,58.90
2019-02-17T08:40:32.798Z,57.53
2019-02-17T08:43:01.983Z,61.40
2019-02-17T08:45:31.106Z,55.07
2019-02-17T08:48:00.257Z,56.10
2019-02-17T08:50:29.438Z,70.93
2019-02-17T08:52:58.559Z,66.43
2019-02-17T08:55:27.694Z,55.30
2019-02-17T08:57:56.890Z,55.80
2019-02-17T09:00:26.138Z,51.73
2019-02-17T09:02:55.265Z,49.10
2019-02-17T09:05:24.498Z,50.50
2019-02-17T09:07:53.657Z,44.73
2019-02-17T09:10:22.870Z,48.10
2019-02-17T09:12:52.000Z,48.17
2019-02-17T09:15:21.229Z,46.87
2019-02-17T09:17:50.414Z,49.47
2019-02-17T09:20:19.593Z,49.97
2019-02-17T09:22:48.754Z,53.40
2019-02-17T09:25:18.042Z,43.43
2019-02-17T09:27:47.246Z,49.60
2019-02-17T09:30:17.010Z,45.23
2019-02-17T09:32:46.142Z,48.67
2019-02-17T09:35:15.368Z,45.10
2019-02-17T09:37:44.535Z,45.93
2019-02-17T09:40:13.686Z,49.60
2019-02-17T09:42:42.858Z,49.07
2019-02-17T09:45:13.001Z,51.27
2019-02-17T09:47:42.165Z,59.30
2019-02-17T09:50:12.382Z,55.67
2019-02-17T09:52:41.547Z,56.60
2019-02-17T09:55:10.754Z,56.63
2019-02-17T09:57:40.192Z,60.47
2019-02-17T10:00:11.222Z,60.60
2019-02-17T10:02:40.414Z,50.57
2019-02-17T10:05:09.602Z,45.27
2019-02-17T10:07:38.870Z,37.77
2019-02-17T10:10:10.381Z,40.83
2019-02-17T10:12:39.513Z,49.23
2019-02-17T10:15:10.553Z,36.63
2019-02-17T10:17:39.950Z,49.87
2019-02-17T10:20:09.845Z,42.77
2019-02-17T10:22:39.070Z,38.97
2019-02-17T10:25:08.226Z,44.43
2019-02-17T10:27:37.367Z,33.77
2019-02-17T10:30:07.606Z,44.17
2019-02-17T10:32:39.168Z,58.53
2019-02-17T10:35:07.874Z,55.40
2019-02-17T10:37:37.020Z,52.60
2019-02-17T10:40:07.857Z,52.97
2019-02-17T10:42:37.518Z,45.90
2019-02-17T10:45:07.381Z,43.40
2019-02-17T10:47:36.630Z,54.60
2019-02-17T10:50:06.210Z,47.07
2019-02-17T10:52:35.557Z,49.80
2019-02-17T10:55:05.087Z,49.40
2019-02-17T10:57:34.221Z,49.10
2019-02-17T11:00:04.571Z,45.77
2019-02-17T11:02:33.756Z,47.50
2019-02-17T11:05:02.921Z,49.57
2019-02-17T11:07:32.294Z,42.80
2019-02-17T11:10:01.475Z,45.93
2019-02-17T11:12:30.622Z,48.57
2019-02-17T11:14:59.790Z,45.63
2019-02-17T11:17:28.966Z,42.87
2019-02-17T11:20:04.022Z,44.37
2019-02-17T11:22:37.720Z,45.57
2019-02-17T11:25:07.298Z,41.27
2019-02-17T11:27:36.446Z,48.10
2019-02-17T11:30:06.851Z,49.93
2019-02-17T11:32:36.115Z,48.57
2019-02-17T11:35:05.500Z,44.63
2019-02-17T11:37:34.634Z,44.67
2019-02-17T11:40:03.803Z,44.70
2019-02-17T11:42:32.962Z,46.33
2019-02-17T11:45:02.135Z,51.27
2019-02-17T11:47:31.302Z,51.60
2019-02-17T11:50:00.445Z,45.23
2019-02-17T11:52:29.595Z,46.97
2019-02-17T11:54:58.770Z,51.83
2019-02-17T11:57:27.970Z,51.60
2019-02-17T11:59:57.206Z,59.20
2019-02-17T12:02:26.358Z,61.50
2019-02-17T12:04:55.530Z,49.73
2019-02-17T12:07:24.753Z,44.30
2019-02-17T12:09:54.030Z,47.30
2019-02-17T12:12:23.190Z,61.20
2019-02-17T12:14:52.379Z,47.10
2019-02-17T12:17:21.602Z,41.53
2019-02-17T12:19:51.922Z,41.30
2019-02-17T12:22:46.234Z,37.83
2019-02-17T12:25:20.254Z,38.53
2019-02-17T12:28:14.266Z,43.40
2019-02-17T12:30:44.742Z,46.13
2019-02-17T12:33:19.218Z,43.80
2019-02-17T12:35:44.754Z,56.80
2019-02-17T12:38:13.915Z,48.17
2019-02-17T12:40:43.257Z,55.97
2019-02-17T12:43:12.418Z,47.07
2019-02-17T12:45:41.582Z,50.87
2019-02-17T12:48:10.753Z,47.20
2019-02-17T12:50:40.010Z,51.33
2019-02-17T12:53:09.138Z,49.53
2019-02-17T12:55:38.314Z,46.27
2019-02-17T12:58:07.450Z,49.87
2019-02-17T13:00:36.658Z,48.53
2019-02-17T13:03:06.009Z,47.73
2019-02-17T13:05:35.158Z,47.60
2019-02-17T13:08:04.333Z,44.83
2019-02-17T13:10:33.540Z,46.07
2019-02-17T13:13:04.732Z,41.53
2019-02-17T13:15:33.734Z,45.80
2019-02-17T13:18:03.030Z,43.97
2019-02-17T13:20:32.188Z,50.07
2019-02-17T13:23:01.603Z,44.13
2019-02-17T13:25:30.834Z,48.37
2019-02-17T13:28:00.046Z,45.03
2019-02-17T13:30:29.262Z,43.77
2019-02-17T13:32:58.615Z,49.97
2019-02-17T13:35:27.779Z,50.77
2019-02-17T13:37:56.970Z,52.87
2019-02-17T13:40:26.174Z,54.93
2019-02-17T13:42:55.350Z,58.30
2019-02-17T13:45:24.509Z,59.03
2019-02-17T13:47:53.763Z,63.77
2019-02-17T13:50:22.915Z,55.20
2019-02-17T13:52:52.162Z,48.83
2019-02-17T13:55:21.350Z,53.30
2019-02-17T13:57:52.350Z,51.70
2019-02-17T14:00:21.534Z,51.30
2019-02-17T14:02:50.688Z,60.23
2019-02-17T14:05:19.946Z,54.53
2019-02-17T14:07:49.081Z,50.50
2019-02-17T14:10:18.242Z,57.73
2019-02-17T14:12:47.434Z,57.27
2019-02-17T14:15:16.702Z,59.70
2019-02-17T14:17:45.882Z,54.53
2019-02-17T14:20:15.050Z,48.93
2019-02-17T14:22:44.291Z,58.57
2019-02-17T14:25:13.542Z,57.60
2019-02-17T14:27:42.822Z,56.97
2019-02-17T14:30:12.533Z,54.37
2019-02-17T14:32:41.750Z,52.57
2019-02-17T14:35:10.902Z,60.77
2019-02-17T14:37:40.127Z,51.00
2019-02-17T14:40:09.642Z,60.97
2019-02-17T14:42:38.857Z,52.13
2019-02-17T14:45:08.434Z,55.20
2019-02-17T14:47:37.598Z,53.57
2019-02-17T14:50:06.906Z,66.23
2019-02-17T14:52:36.066Z,54.20
2019-02-17T14:55:05.573Z,52.73
2019-02-17T14:57:34.816Z,57.20
2019-02-17T15:00:04.250Z,66.33
2019-02-17T15:02:33.479Z,68.73
2019-02-17T15:05:02.666Z,65.20
2019-02-17T15:07:31.877Z,58.20
2019-02-17T15:10:01.092Z,51.83
2019-02-17T15:12:30.237Z,47.43
2019-02-17T15:14:59.430Z,47.87
2019-02-17T15:17:28.622Z,55.10
2019-02-17T15:19:57.798Z,54.43
2019-02-17T15:22:26.954Z,61.17
2019-02-17T15:24:56.127Z,61.13
2019-02-17T15:27:25.371Z,73.80
2019-02-17T15:29:54.586Z,70.63
2019-02-17T15:32:23.854Z,81.97
2019-02-17T15:34:53.009Z,85.80
2019-02-17T15:37:22.733Z,73.73
2019-02-17T15:39:51.910Z,76.07
2019-02-17T15:42:21.050Z,78.43
2019-02-17T15:44:50.206Z,77.40
2019-02-17T15:47:19.380Z,82.97
2019-02-17T15:49:48.643Z,72.40
2019-02-17T15:52:17.850Z,90.13
2019-02-17T15:54:46.990Z,100.30
2019-02-17T15:57:16.191Z,93.93
2019-02-17T15:59:45.354Z,104.73
2019-02-17T16:02:14.660Z,106.50
2019-02-17T16:04:45.125Z,114.50
2019-02-17T16:07:14.498Z,133.03
2019-02-17T16:09:43.645Z,124.30
2019-02-17T16:12:12.842Z,131.23
2019-02-17T16:14:42.115Z,141.03
2019-02-17T16:17:11.313Z,154.17
2019-02-17T16:19:40.617Z,177.57
2019-02-17T16:22:09.869Z,176.63
2019-02-17T16:24:39.092Z,179.97
2019-02-17T16:27:08.294Z,169.50
2019-02-17T16:29:37.461Z,178.00
2019-02-17T16:32:06.775Z,160.77
2019-02-17T16:34:38.447Z,231.67
2019-02-17T16:37:06.875Z,220.23
2019-02-17T16:39:36.106Z,194.13
2019-02-17T16:42:05.312Z,210.43
2019-02-17T16:44:34.641Z,212.60
2019-02-17T16:47:03.862Z,193.77
2019-02-17T16:49:33.281Z,232.43
2019-02-17T16:52:02.490Z,208.70
2019-02-17T16:54:31.741Z,181.10
2019-02-17T16:57:00.880Z,175.97
2019-02-17T16:59:30.045Z,157.10
2019-02-17T17:01:59.222Z,177.20
2019-02-17T17:04:28.574Z,174.60
2019-02-17T17:06:57.907Z,171.43
2019-02-17T17:09:27.081Z,173.83
2019-02-17T17:11:56.222Z,170.63
2019-02-17T17:14:25.417Z,200.73
2019-02-17T17:16:54.668Z,152.90
2019-02-17T17:19:23.919Z,188.67
2019-02-17T17:21:53.085Z,172.40
2019-02-17T17:24:22.476Z,187.87
2019-02-17T17:26:51.840Z,205.10
2019-02-17T17:29:21.075Z,175.73
2019-02-17T17:31:50.330Z,144.53
2019-02-17T17:34:19.564Z,181.23
2019-02-17T17:36:48.726Z,139.80
2019-02-17T17:39:17.912Z,143.70
2019-02-17T17:41:47.130Z,134.70
2019-02-17T17:44:16.271Z,118.57
2019-02-17T17:46:45.473Z,123.07
2019-02-17T17:49:19.283Z,124.10
2019-02-17T17:51:45.534Z,101.43
2019-02-17T17:54:14.820Z,101.87
2019-02-17T17:56:44.146Z,98.87
2019-02-17T17:59:13.420Z,125.10
2019-02-17T18:01:42.650Z,113.93
2019-02-17T18:04:11.822Z,110.53
2019-02-17T18:06:41.093Z,134.10
2019-02-17T18:09:10.432Z,127.87
2019-02-17T18:11:39.785Z,134.03
2019-02-17T18:14:09.015Z,145.97
2019-02-17T18:16:38.298Z,132.13
2019-02-17T18:19:07.485Z,153.70
2019-02-17T18:21:36.710Z,116.10
2019-02-17T18:24:05.969Z,155.30
2019-02-17T18:26:35.403Z,146.07
2019-02-17T18:29:04.970Z,169.80
2019-02-17T18:31:34.304Z,153.07
2019-02-17T18:34:03.541Z,144.10
2019-02-17T18:36:32.746Z,143.13
2019-02-17T18:39:01.935Z,165.23
2019-02-17T18:41:31.695Z,166.40
2019-02-17T18:44:02.371Z,220.03
2019-02-17T18:46:31.726Z,182.20
2019-02-17T18:49:01.096Z,163.20
2019-02-17T18:51:30.242Z,196.10
2019-02-17T18:53:59.618Z,205.70
2019-02-17T18:56:29.158Z,172.50
2019-02-17T18:58:58.517Z,193.80
2019-02-17T19:01:27.837Z,175.20
2019-02-17T19:03:56.978Z,173.60
2019-02-17T19:06:26.217Z,156.00
2019-02-17T19:08:55.353Z,155.33
2019-02-17T19:11:24.512Z,141.23
2019-02-17T19:13:53.763Z,153.20
2019-02-17T19:16:23.142Z,129.90
2019-02-17T19:18:52.371Z,135.40
2019-02-17T19:21:21.562Z,130.10
2019-02-17T19:23:53.657Z,168.70
2019-02-17T19:26:22.959Z,148.17
2019-02-17T19:28:52.129Z,162.63
2019-02-17T19:31:21.279Z,188.47
2019-02-17T19:33:50.422Z,168.67
2019-02-17T19:36:19.639Z,163.47
2019-02-17T19:38:48.788Z,182.93
2019-02-17T19:41:18.006Z,196.47
2019-02-17T19:43:47.158Z,169.23
2019-02-17T19:46:16.382Z,182.70
2019-02-17T19:48:45.570Z,169.27
2019-02-17T19:51:14.837Z,159.07
2019-02-17T19:53:44.022Z,169.90
2019-02-17T19:56:13.202Z,159.33
2019-02-17T19:58:42.361Z,163.23
2019-02-17T20:01:11.539Z,148.00
2019-02-17T20:04:01.622Z,166.07
2019-02-17T20:06:30.946Z,138.40
2019-02-17T20:09:00.086Z,150.30
2019-02-17T20:11:29.261Z,163.80
2019-02-17T20:13:58.417Z,166.97
2019-02-17T20:16:27.871Z,170.07
2019-02-17T20:18:57.061Z,160.23
2019-02-17T20:21:26.198Z,172.50
2019-02-17T20:23:55.405Z,163.37
2019-02-17T20:26:24.817Z,167.10
2019-02-17T20:28:57.282Z,165.77
2019-02-17T20:31:24.846Z,189.37
2019-02-17T20:33:53.992Z,178.40
2019-02-17T20:36:23.135Z,170.33
2019-02-17T20:38:52.370Z,189.37
2019-02-17T20:41:21.555Z,197.03
2019-02-17T20:43:53.509Z,184.87
2019-02-17T20:46:22.718Z,163.53
2019-02-17T20:48:52.587Z,175.53
2019-02-17T20:51:21.925Z,161.80
2019-02-17T20:53:51.108Z,196.90
2019-02-17T20:56:20.442Z,177.10
2019-02-17T20:58:49.643Z,181.67
2019-02-17T21:01:18.787Z,177.77
2019-02-17T21:03:47.935Z,178.70
2019-02-17T21:06:17.182Z,177.27
2019-02-17T21:08:46.317Z,153.27
2019-02-17T21:11:15.483Z,153.00
2019-02-17T21:13:44.618Z,151.30
2019-02-17T21:16:14.083Z,153.70
2019-02-17T21:18:43.248Z,150.10
2019-02-17T21:21:12.405Z,150.63
2019-02-17T21:23:41.637Z,154.17
2019-02-17T21:26:10.794Z,158.07
2019-02-17T21:28:39.973Z,140.03
2019-02-17T21:31:09.134Z,142.73
2019-02-17T21:33:38.369Z,142.40
2019-02-17T21:36:07.613Z,149.00
2019-02-17T21:38:36.774Z,153.80
2019-02-17T21:41:09.333Z,165.30
2019-02-17T21:43:36.814Z,165.87
2019-02-17T21:46:06.087Z,163.67
2019-02-17T21:48:35.234Z,167.67
2019-02-17T21:51:04.874Z,170.20
2019-02-17T21:53:34.058Z,162.90
2019-02-17T21:56:03.280Z,172.47
2019-02-17T21:58:32.471Z,156.63
2019-02-17T22:01:03.256Z,152.77
2019-02-17T22:03:32.706Z,164.83
2019-02-17T22:06:01.955Z,153.73
2019-02-17T22:08:31.130Z,146.60
2019-02-17T22:11:00.318Z,134.23
2019-02-17T22:13:29.497Z,125.93
2019-02-17T22:15:58.637Z,131.67
2019-02-17T22:18:29.686Z,126.03
2019-02-17T22:20:58.698Z,128.83
2019-02-17T22:23:27.838Z,128.00
2019-02-17T22:25:57.020Z,125.87
2019-02-17T22:28:26.158Z,123.43
2019-02-17T22:30:55.322Z,127.70
2019-02-17T22:33:24.478Z,124.77
2019-02-17T22:35:53.610Z,117.97
2019-02-17T22:38:22.846Z,115.17
2019-02-17T22:40:52.435Z,120.20
2019-02-17T22:43:21.665Z,112.80
2019-02-17T22:45:50.872Z,101.30
2019-02-17T22:48:20.058Z,121.17
2019-02-17T22:50:49.267Z,109.80
2019-02-17T22:53:18.453Z,120.20
2019-02-17T22:55:47.603Z,121.93
2019-02-17T22:58:16.807Z,111.47
2019-02-17T23:00:59.448Z,121.37
2019-02-17T23:03:29.871Z,122.53
2019-02-17T23:05:59.114Z,126.40
2019-02-17T23:08:28.318Z,140.63
2019-02-17T23:10:57.475Z,146.17
2019-02-17T23:13:26.670Z,140.47
2019-02-17T23:15:55.830Z,148.47
2019-02-17T23:18:24.980Z,147.33
2019-02-17T23:20:54.203Z,148.97
2019-02-17T23:23:23.375Z,146.87
2019-02-17T23:25:52.518Z,146.50
2019-02-17T23:28:21.666Z,146.70
2019-02-17T23:30:50.866Z,144.23
2019-02-17T23:33:20.000Z,143.20
2019-02-17T23:35:49.166Z,148.20
2019-02-17T23:38:18.325Z,133.23
2019-02-17T23:40:47.556Z,143.80
2019-02-17T23:43:16.768Z,137.10
2019-02-17T23:45:45.949Z,141.17
2019-02-17T23:48:15.082Z,145.53
2019-02-17T23:50:44.235Z,134.53
2019-02-17T23:53:13.478Z,131.70
2019-02-17T23:55:42.675Z,141.90
2019-02-17T23:58:11.905Z,137.90
